Dobrodošli na spletni strani vremenske postaje Senovo. Vse informacije so informativnega značaja, saj vremenska postaja ni del državne mreže meteoroloških postaj. AKTUALNIH OBVESTIL NI.


Sneg/Led Od: 23-02-2018 00:00 Do: 23:59 Opozorilo za: Sneg/Led Stopnja: Rumena info button

Pogled proti Armezu več informacij Pogled proti Armezu


Lisca več informacij Lisca


Radar strel več informacij blitzortung!


opozorilo za sneg/led več informacij rain snow radar


Obiščite še:

Template documentation
and downloads

And another site



Weather Underground, zgodovina - Tekstovno

Dnevni povzetek za Januar 14, 2018 Enote:  Angleško    Metrično   Obe
« Predhodni Dan
Naslednji Dan »
Dnevni Tedenski Mesečni Letni Po meri
  Višja: Nižja: Povprečje:
Temperatura: TemperatureC °F -0.6 °F 1.2 °F
Točka rosišča: DewpointC °F -3.3 °F -1 °F
Vlažnost: Humidity % 80 % 85 %
Hitrost vetra: WindSpeedKMH mph 0.2 mph 5.3 mph
Sunki vetra: WindSpeedGustKMH mph - -
Veter:- - East
Zračni tlak: PressurehPa in 1020.9 in -
Padavine: 0.3 in    
Historical Graphs
 
 
Tabelarni podarki za Januar 14, 2018
Čas Temperatura Točka rosišča Zračni tlak Veter Hitrost vetra Sunki vetra Vlažnost Intenziteta padavin (urna)
TemperatureC °F DewpointC °F PressurehPa in Calm     Humidity % HourlyPrecipMM in
00:01 2.6 °F 0.8 °F 1022.9 in East 2.7 mph 7.6 mph 88 % 0.0 in
00:09 2.6 °F 0.8 °F 1022.9 in ENE 3.7 mph 7.9 mph 88 % 0.0 in
00:14 2.6 °F 0.8 °F 1022.9 in NE 3.4 mph 7.9 mph 88 % 0.0 in
00:24 2.5 °F 0.7 °F 1022.9 in ENE 5.5 mph 10.1 mph 88 % 0.0 in
00:29 2.5 °F 0.7 °F 1022.9 in ENE 5.1 mph 10.1 mph 88 % 0.0 in
00:38 2.5 °F 0.7 °F 1022.9 in East 5.5 mph 11.9 mph 88 % 0.0 in
00:47 2.5 °F 0.7 °F 1022.9 in East 6.6 mph 10.8 mph 88 % 0.0 in
00:52 2.5 °F 0.7 °F 1022.9 in ENE 5.5 mph 10.8 mph 88 % 0.0 in
01:00 2.4 °F 0.6 °F 1022.9 in ENE 6.0 mph 10.1 mph 88 % 0.0 in
01:06 2.4 °F 0.6 °F 1022.9 in ENE 5.5 mph 10.1 mph 88 % 0.0 in
01:13 2.4 °F 0.6 °F 1021.9 in East 5.0 mph 10.1 mph 88 % 0.0 in
01:18 2.4 °F 0.6 °F 1021.9 in East 5.8 mph 10.1 mph 88 % 0.0 in
01:30 2.4 °F 0.6 °F 1021.9 in ENE 3.7 mph 7.9 mph 88 % 0.0 in
01:31 2.4 °F 0.6 °F 1021.9 in ENE 3.4 mph 7.9 mph 88 % 0.0 in
01:37 2.4 °F 0.6 °F 1021.9 in East 3.4 mph 5.8 mph 88 % 0.0 in
01:58 2.4 °F 0.6 °F 1021.9 in ENE 5.3 mph 10.8 mph 88 % 0.0 in
02:03 2.4 °F 0.6 °F 1021.9 in ENE 6.4 mph 10.8 mph 88 % 0.0 in
02:09 2.4 °F 0.6 °F 1021.9 in ENE 6.3 mph 10.5 mph 88 % 0.0 in
02:16 2.3 °F 0.5 °F 1021.9 in East 4.3 mph 7.6 mph 88 % 0.0 in
02:23 2.3 °F 0.5 °F 1021.9 in SE 3.4 mph 6.1 mph 88 % 0.0 in
02:28 2.3 °F 0.5 °F 1021.9 in ESE 1.8 mph 5.8 mph 88 % 0.0 in
02:34 2.3 °F 0.5 °F 1021.9 in SE 1.6 mph 5.8 mph 88 % 0.0 in
02:44 2.3 °F 0.5 °F 1021.9 in SE 3.9 mph 6.4 mph 88 % 0.0 in
02:49 2.3 °F 0.5 °F 1021.9 in SE 3.4 mph 6.1 mph 88 % 0.0 in
02:56 2.3 °F 0.5 °F 1021.9 in SE 4.0 mph 6.9 mph 88 % 0.0 in
03:01 2.2 °F 0.4 °F 1021.9 in SE 4.5 mph 6.9 mph 88 % 0.0 in
03:13 2.2 °F 0.4 °F 1021.9 in SE 5.1 mph 9.3 mph 88 % 0.0 in
03:25 2.2 °F 0.4 °F 1021.9 in SE 5.0 mph 9.0 mph 88 % 0.0 in
03:33 2.2 °F 0.4 °F 1021.9 in ESE 4.0 mph 10.5 mph 88 % 0.0 in
03:40 2.2 °F 0.4 °F 1021.9 in ESE 5.0 mph 10.5 mph 88 % 0.0 in
03:49 2.1 °F 0.3 °F 1020.9 in SE 5.5 mph 9.7 mph 88 % 0.0 in
04:00 2.1 °F 0.3 °F 1020.9 in SE 6.9 mph 10.5 mph 88 % 0.0 in
04:05 2.1 °F 0.3 °F 1020.9 in SE 6.6 mph 9.7 mph 88 % 0.0 in
04:18 2.1 °F 0.3 °F 1020.9 in ESE 6.1 mph 10.1 mph 88 % 0.0 in
04:34 2.1 °F 0.3 °F 1020.9 in SE 4.2 mph 9.7 mph 88 % 0.0 in
04:42 2.1 °F 0.3 °F 1020.9 in ESE 6.0 mph 10.1 mph 88 % 0.0 in
04:49 2.1 °F 0.3 °F 1020.9 in ESE 5.0 mph 7.9 mph 88 % 0.0 in
04:55 2.1 °F 0.3 °F 1020.9 in East 4.5 mph 7.9 mph 88 % 0.0 in
05:11 2.1 °F 0.3 °F 1021.9 in ESE 4.3 mph 8.7 mph 88 % 0.0 in
05:23 2.1 °F 0.3 °F 1020.9 in ESE 6.0 mph 10.5 mph 88 % 0.0 in
05:29 2.1 °F 0.3 °F 1020.9 in East 6.4 mph 10.5 mph 88 % 0.0 in
05:33 2.1 °F 0.3 °F 1020.9 in East 6.6 mph 10.1 mph 88 % 0.0 in
05:39 2.1 °F 0.3 °F 1020.9 in East 6.9 mph 9.7 mph 88 % 0.0 in
05:44 2.1 °F 0.3 °F 1020.9 in East 7.1 mph 10.5 mph 88 % 0.0 in
06:13 2.0 °F 0.2 °F 1021.9 in ENE 6.4 mph 13.0 mph 88 % 0.0 in
06:18 2.0 °F 0.2 °F 1021.9 in ENE 6.6 mph 13.0 mph 88 % 0.0 in
06:26 2.0 °F 0.1 °F 1021.9 in ENE 6.0 mph 12.6 mph 87 % 0.0 in
06:32 1.9 °F 0.1 °F 1021.9 in ENE 7.6 mph 12.6 mph 88 % 0.0 in
06:38 1.9 °F 0.1 °F 1021.9 in ENE 7.9 mph 15.8 mph 88 % 0.0 in
06:44 1.9 °F 0.1 °F 1021.9 in ENE 6.8 mph 10.5 mph 88 % 0.0 in
07:02 1.8 °F 0.0 °F 1021.9 in East 5.5 mph 9.3 mph 88 % 0.0 in
07:11 1.8 °F 0.0 °F 1021.9 in East 5.6 mph 9.7 mph 88 % 0.0 in
07:17 1.8 °F 0.0 °F 1021.9 in East 6.9 mph 16.9 mph 88 % 0.0 in
07:22 1.7 °F -0.1 °F 1021.9 in East 7.7 mph 16.9 mph 88 % 0.0 in
07:31 1.7 °F -0.1 °F 1021.9 in East 8.0 mph 12.2 mph 88 % 0.0 in
07:48 1.6 °F -0.2 °F 1021.9 in ENE 9.3 mph 19.8 mph 88 % 0.0 in
07:57 1.5 °F -0.3 °F 1022.9 in ENE 9.8 mph 20.9 mph 88 % 0.0 in
08:06 1.5 °F -0.3 °F 1022.9 in ENE 7.9 mph 11.6 mph 88 % 0.0 in
08:11 1.5 °F -0.3 °F 1022.9 in ENE 6.9 mph 10.5 mph 88 % 0.0 in
08:24 1.5 °F -0.1 °F 1021.9 in ESE 7.7 mph 20.1 mph 89 % 0.0 in
08:32 1.4 °F -0.2 °F 1022.9 in ESE 8.0 mph 14.0 mph 89 % 0.0 in
08:44 1.4 °F -0.2 °F 1023.9 in ESE 6.6 mph 11.9 mph 89 % 0.0 in
08:52 1.3 °F -0.3 °F 1023.9 in ESE 6.0 mph 11.9 mph 89 % 0.0 in
08:58 1.3 °F -0.3 °F 1022.9 in ESE 7.9 mph 16.6 mph 89 % 0.0 in
09:04 1.2 °F -0.4 °F 1022.9 in ESE 8.4 mph 14.0 mph 89 % 0.0 in
09:25 1.1 °F -0.5 °F 1022.9 in ESE 6.3 mph 13.0 mph 89 % 0.0 in
09:30 1.1 °F -0.5 °F 1021.9 in ESE 5.3 mph 10.5 mph 89 % 0.0 in
09:37 1.1 °F -0.5 °F 1021.9 in ESE 5.5 mph 11.6 mph 89 % 0.0 in
10:21 0.9 °F -0.6 °F 1022.9 in East 6.8 mph 11.9 mph 90 % 0.3 in
10:34 1.0 °F -0.6 °F 1023.9 in East 7.1 mph 13.7 mph 89 % 0.3 in
10:43 1.0 °F -0.6 °F 1023.9 in East 8.8 mph 17.7 mph 89 % 0.3 in
10:50 1.1 °F -0.5 °F 1023.9 in ENE 6.6 mph 12.6 mph 89 % 0.3 in
11:07 1.1 °F -0.5 °F 1023.9 in ENE 8.0 mph 11.6 mph 89 % 0.0 in
11:17 1.2 °F -0.4 °F 1023.9 in ENE 6.6 mph 12.6 mph 89 % 0.0 in
11:40 1.3 °F -0.3 °F 1023.9 in East 6.8 mph 11.6 mph 89 % 0.0 in
12:07 1.2 °F -0.6 °F 1022.9 in ENE 7.1 mph 11.9 mph 88 % 0.0 in
12:14 1.1 °F -0.7 °F 1022.9 in ENE 6.9 mph 11.1 mph 88 % 0.0 in
12:19 1.1 °F -0.7 °F 1022.9 in ENE 7.4 mph 12.2 mph 88 % 0.0 in
12:26 1.1 °F -0.7 °F 1022.9 in ENE 6.4 mph 10.5 mph 88 % 0.0 in
12:41 1.2 °F -0.7 °F 1022.9 in ENE 7.1 mph 12.2 mph 87 % 0.0 in
12:46 1.2 °F -0.7 °F 1022.9 in ENE 7.1 mph 12.2 mph 87 % 0.0 in
12:54 1.2 °F -0.7 °F 1022.9 in ENE 6.0 mph 11.9 mph 87 % 0.0 in
13:06 1.1 °F -0.8 °F 1021.9 in ENE 8.2 mph 14.0 mph 87 % 0.0 in
13:14 1.1 °F -0.8 °F 1022.9 in ENE 7.2 mph 12.6 mph 87 % 0.0 in
13:22 1.1 °F -0.8 °F 1022.9 in East 7.2 mph 12.6 mph 87 % 0.0 in
13:34 1.2 °F -0.9 °F 1022.9 in ENE 7.1 mph 12.2 mph 86 % 0.0 in
13:54 1.2 °F -0.9 °F 1022.9 in ENE 8.2 mph 13.0 mph 86 % 0.0 in
13:59 1.1 °F -1.2 °F 1022.9 in ENE 6.9 mph 13.0 mph 85 % 0.0 in
14:07 1.1 °F -1.2 °F 1022.9 in NE 6.9 mph 14.8 mph 85 % 0.0 in
14:12 1.0 °F -1.2 °F 1022.9 in ENE 7.4 mph 14.0 mph 85 % 0.0 in
14:26 1.0 °F -1.2 °F 1022.9 in ENE 8.2 mph 16.9 mph 85 % 0.0 in
14:32 0.9 °F -1.3 °F 1021.9 in ENE 6.8 mph 16.9 mph 85 % 0.0 in
14:39 0.9 °F -1.3 °F 1021.9 in ENE 7.1 mph 13.0 mph 85 % 0.0 in
14:44 0.9 °F -1.3 °F 1022.9 in ENE 7.1 mph 13.0 mph 85 % 0.0 in
14:52 0.8 °F -1.4 °F 1022.9 in ENE 7.2 mph 12.2 mph 85 % 0.0 in
14:57 0.8 °F -1.4 °F 1022.9 in ENE 6.9 mph 12.2 mph 85 % 0.0 in
15:06 0.8 °F -1.4 °F 1022.9 in ENE 6.4 mph 10.8 mph 85 % 0.0 in
15:14 0.8 °F -1.4 °F 1022.9 in ENE 7.7 mph 11.9 mph 85 % 0.0 in
15:19 0.8 °F -1.6 °F 1022.9 in ENE 6.8 mph 11.6 mph 84 % 0.0 in
15:26 0.8 °F -1.6 °F 1022.9 in ENE 5.6 mph 9.7 mph 84 % 0.0 in
15:35 0.8 °F -1.6 °F 1022.9 in ENE 6.6 mph 13.0 mph 84 % 0.0 in
15:46 0.8 °F -1.6 °F 1022.9 in ENE 7.6 mph 13.7 mph 84 % 0.0 in
15:58 0.7 °F -1.7 °F 1022.9 in ENE 6.9 mph 12.2 mph 84 % 0.0 in
16:09 0.7 °F -1.7 °F 1022.9 in NE 8.4 mph 17.2 mph 84 % 0.0 in
16:20 0.7 °F -1.8 °F 1022.9 in NE 7.4 mph 12.2 mph 83 % 0.0 in
16:30 0.7 °F -1.8 °F 1023.9 in ENE 6.8 mph 12.2 mph 83 % 0.0 in
16:36 0.7 °F -1.8 °F 1023.9 in ENE 7.4 mph 12.6 mph 83 % 0.0 in
16:41 0.6 °F -1.9 °F 1023.9 in ENE 7.4 mph 13.7 mph 83 % 0.0 in
16:47 0.6 °F -1.9 °F 1023.9 in ENE 7.7 mph 13.7 mph 83 % 0.0 in
17:05 0.6 °F -2.1 °F 1023.9 in ENE 5.3 mph 10.5 mph 82 % 0.0 in
17:22 0.6 °F -2.1 °F 1023.9 in ENE 5.6 mph 9.7 mph 82 % 0.0 in
17:32 0.6 °F -2.1 °F 1023.9 in East 5.5 mph 8.7 mph 82 % 0.0 in
18:01 0.5 °F -2.4 °F 1023.9 in East 5.1 mph 9.7 mph 81 % 0.0 in
18:06 0.5 °F -2.4 °F 1023.9 in East 4.8 mph 9.7 mph 81 % 0.0 in
18:23 0.4 °F -2.5 °F 1024.9 in East 3.4 mph 6.1 mph 81 % 0.0 in
18:29 0.4 °F -2.5 °F 1024.9 in East 3.4 mph 6.1 mph 81 % 0.0 in
18:41 0.3 °F -2.7 °F 1024.9 in East 5.0 mph 9.3 mph 80 % 0.0 in
18:47 0.3 °F -2.7 °F 1024.9 in East 4.5 mph 7.6 mph 80 % 0.0 in
18:55 0.3 °F -2.7 °F 1024.9 in East 3.9 mph 5.5 mph 80 % 0.0 in
19:21 0.2 °F -2.8 °F 1024.9 in ESE 4.0 mph 6.9 mph 80 % 0.0 in
19:27 0.2 °F -2.8 °F 1024.9 in ESE 3.5 mph 6.1 mph 80 % 0.0 in
19:32 0.2 °F -2.8 °F 1024.9 in ESE 3.2 mph 5.8 mph 80 % 0.0 in
19:52 0.1 °F -2.9 °F 1024.9 in East 4.2 mph 9.3 mph 80 % 0.0 in
19:58 0.1 °F -2.9 °F 1024.9 in East 3.9 mph 10.5 mph 80 % 0.0 in
20:09 0.0 °F -3.1 °F 1024.9 in ESE 4.5 mph 6.9 mph 80 % 0.0 in
20:14 0.0 °F -3.1 °F 1023.9 in ESE 4.2 mph 6.9 mph 80 % 0.0 in
20:18 0.0 °F -3.1 °F 1023.9 in ESE 4.5 mph 6.9 mph 80 % 0.0 in
20:35 -0.2 °F -3.1 °F 1024.9 in ESE 1.4 mph 4.7 mph 81 % 0.3 in
20:43 -0.3 °F -3.2 °F 1023.9 in ESE 2.6 mph 5.0 mph 81 % 0.3 in
20:48 -0.3 °F -3.2 °F 1023.9 in ESE 2.3 mph 4.3 mph 81 % 0.3 in
21:01 -0.4 °F -3.3 °F 1023.9 in SE 0.8 mph 4.3 mph 81 % 0.3 in
21:10 -0.5 °F -3.3 °F 1023.9 in ENE 0.3 mph 3.5 mph 81 % 0.3 in
21:19 -0.5 °F -3.3 °F 1024.9 in East 0.8 mph 3.5 mph 81 % 0.3 in
21:27 -0.5 °F -3.2 °F 1023.9 in East 1.0 mph 4.3 mph 82 % 0.0 in
21:38 -0.5 °F -3.2 °F 1023.9 in ESE 1.1 mph 5.5 mph 82 % 0.0 in
21:48 -0.5 °F -3.2 °F 1023.9 in ESE 0.3 mph 3.2 mph 82 % 0.0 in
21:54 -0.5 °F -3.2 °F 1023.9 in ESE 0.2 mph 1.8 mph 82 % 0.0 in
22:00 -0.5 °F -3.2 °F 1023.9 in SE 1.0 mph 5.0 mph 82 % 0.0 in
22:06 -0.5 °F -3.1 °F 1023.9 in SE 2.3 mph 5.0 mph 83 % 0.0 in
22:18 -0.5 °F -3.1 °F 1024.9 in SE 1.6 mph 5.0 mph 83 % 0.0 in
22:25 -0.5 °F -3.1 °F 1024.9 in SE 2.1 mph 4.3 mph 83 % 0.0 in
22:34 -0.5 °F -3.1 °F 1023.9 in ESE 3.1 mph 5.8 mph 83 % 0.0 in
22:43 -0.5 °F -2.9 °F 1024.9 in ESE 2.4 mph 4.7 mph 84 % 0.0 in
22:55 -0.5 °F -2.9 °F 1024.9 in East 1.0 mph 4.3 mph 84 % 0.0 in
23:12 -0.5 °F -2.9 °F 1024.9 in East 2.1 mph 5.5 mph 84 % 0.0 in
23:19 -0.5 °F -2.9 °F 1024.9 in East 2.6 mph 4.7 mph 84 % 0.0 in
23:24 -0.6 °F -2.9 °F 1024.9 in East 2.6 mph 4.3 mph 84 % 0.0 in
23:36 -0.6 °F -2.9 °F 1024.9 in ESE 1.8 mph 4.3 mph 84 % 0.0 in
23:54 -0.5 °F -2.7 °F 1024.9 in ESE 3.1 mph 5.8 mph 85 % 0.0 in
Vremenska postaja Senovo
Podatki zbrani iz Weather Underground - 2.25 mb

Script developed by  Jim McMurry - jmcmurry@mwt.net Adapted for the template by  Wim van der Kuil - Leuven-Template.eu

Vremenski podatki so objavljeni na:

European Weather Network

WeatherCloud

Weather Underground

AWEKAS

HAMweather, WeatherForYou, PWS Weather

MapView

Geostik

Slovenia weather network

Oprema, ki se uporablja:

Vremenski program
Cumulus

Vremenski server
Asus

Cumulus

Asus